createdAt,value
2022-07-31T00:00:21.293Z,100362.81
2022-07-31T00:02:48.271Z,100355.72
2022-07-31T00:05:14.995Z,100355.19
2022-07-31T00:07:41.763Z,100354.06
2022-07-31T00:10:09.284Z,100344.28
2022-07-31T00:12:36.031Z,100356.25
2022-07-31T00:15:08.334Z,100342.06
2022-07-31T00:17:35.261Z,100355.37
2022-07-31T00:20:02.310Z,100345.59
2022-07-31T00:22:28.967Z,100337.69
2022-07-31T00:24:56.971Z,100333.31
2022-07-31T00:27:23.875Z,100342.84
2022-07-31T00:29:50.956Z,100339.28
2022-07-31T00:32:17.995Z,100332.78
2022-07-31T00:34:44.745Z,100325.69
2022-07-31T00:37:11.417Z,100334.91
2022-07-31T00:39:38.417Z,100330.31
2022-07-31T00:42:05.948Z,100321.59
2022-07-31T00:44:32.697Z,100333.81
2022-07-31T00:47:01.729Z,100331.34
2022-07-31T00:49:37.707Z,100322.66
2022-07-31T00:52:05.713Z,100324.78
2022-07-31T00:54:33.407Z,100328.56
2022-07-31T00:57:00.768Z,100322.88
2022-07-31T00:59:29.116Z,100321.22
2022-07-31T01:01:57.362Z,100319.00
2022-07-31T01:04:26.202Z,100329.34
2022-07-31T01:06:54.851Z,100330.66
2022-07-31T01:09:22.086Z,100324.38
2022-07-31T01:12:00.630Z,100318.59
2022-07-31T01:14:31.262Z,100327.59
2022-07-31T01:17:00.161Z,100324.28
2022-07-31T01:19:43.151Z,100318.25
2022-07-31T01:22:48.131Z,100324.44
2022-07-31T01:25:34.515Z,100321.97
2022-07-31T01:28:12.049Z,100325.13
2022-07-31T01:31:24.212Z,100323.69
2022-07-31T01:33:53.708Z,100313.59
2022-07-31T01:36:24.745Z,100309.75
2022-07-31T01:38:55.884Z,100320.59
2022-07-31T01:41:30.354Z,100306.09
2022-07-31T01:43:59.027Z,100314.50
2022-07-31T01:46:28.890Z,100306.34
2022-07-31T01:48:57.326Z,100306.03
2022-07-31T01:51:26.378Z,100298.66
2022-07-31T01:53:54.394Z,100295.44
2022-07-31T01:56:22.164Z,100297.53
2022-07-31T01:58:49.985Z,100300.25
2022-07-31T02:01:19.209Z,100309.47
2022-07-31T02:03:51.445Z,100307.81
2022-07-31T02:06:24.725Z,100303.97
2022-07-31T02:08:54.454Z,100306.13
2022-07-31T02:11:22.000Z,100307.69
2022-07-31T02:13:49.877Z,100305.19
2022-07-31T02:16:19.433Z,100296.44
2022-07-31T02:18:49.553Z,100298.59
2022-07-31T02:21:18.904Z,100296.12
2022-07-31T02:23:45.692Z,100302.66
2022-07-31T02:26:15.583Z,100298.84
2022-07-31T02:28:44.562Z,100316.16
2022-07-31T02:31:13.698Z,100306.34
2022-07-31T02:33:45.754Z,100313.41
2022-07-31T02:36:14.395Z,100311.44
2022-07-31T02:38:43.811Z,100315.53
2022-07-31T02:41:13.032Z,100315.00
2022-07-31T02:43:40.790Z,100320.25
2022-07-31T02:46:11.273Z,100308.59
2022-07-31T02:48:39.527Z,100323.91
2022-07-31T02:51:08.541Z,100309.72
2022-07-31T02:53:37.868Z,100317.09
2022-07-31T02:56:09.430Z,100326.62
2022-07-31T02:58:43.471Z,100321.63
2022-07-31T03:01:11.698Z,100328.97
2022-07-31T03:03:38.885Z,100323.56
2022-07-31T03:06:05.654Z,100331.16
2022-07-31T03:08:32.457Z,100331.16
2022-07-31T03:11:02.529Z,100312.41
2022-07-31T03:13:31.975Z,100324.69
2022-07-31T03:15:59.854Z,100333.72
2022-07-31T03:18:29.461Z,100328.59
2022-07-31T03:20:56.859Z,100329.72
2022-07-31T03:23:27.359Z,100327.06
2022-07-31T03:25:54.673Z,100332.31
2022-07-31T03:28:22.050Z,100335.34
2022-07-31T03:30:56.092Z,100321.53
2022-07-31T03:33:23.966Z,100332.81
2022-07-31T03:35:51.415Z,100334.50
2022-07-31T03:38:38.487Z,100325.16
2022-07-31T03:41:05.480Z,100334.63
2022-07-31T03:43:44.183Z,100327.75
2022-07-31T03:46:20.197Z,100329.75
2022-07-31T03:48:47.917Z,100326.09
2022-07-31T03:51:15.877Z,100318.53
2022-07-31T03:53:43.552Z,100314.44
2022-07-31T03:56:13.038Z,100308.19
2022-07-31T03:58:40.322Z,100307.56
2022-07-31T04:01:10.659Z,100308.78
2022-07-31T04:03:39.610Z,100317.53
2022-07-31T04:06:07.729Z,100316.41
2022-07-31T04:08:34.505Z,100310.69
2022-07-31T04:11:01.485Z,100316.19
2022-07-31T04:13:29.311Z,100320.72
2022-07-31T04:15:56.349Z,100314.97
2022-07-31T04:18:23.282Z,100313.69
2022-07-31T04:20:50.153Z,100313.62
2022-07-31T04:23:16.958Z,100309.06
2022-07-31T04:25:45.939Z,100312.47
2022-07-31T04:28:13.750Z,100303.84
2022-07-31T04:30:40.917Z,100305.19
2022-07-31T04:33:07.909Z,100311.69
2022-07-31T04:35:35.934Z,100314.31
2022-07-31T04:38:02.808Z,100317.38
2022-07-31T04:40:30.829Z,100309.53
2022-07-31T04:42:57.687Z,100317.47
2022-07-31T04:45:24.410Z,100308.47
2022-07-31T04:47:52.698Z,100301.09
2022-07-31T04:50:19.497Z,100311.72
2022-07-31T04:52:54.821Z,100328.31
2022-07-31T04:55:22.833Z,100303.84
2022-07-31T04:57:49.587Z,100314.72
2022-07-31T05:00:16.643Z,100314.72
2022-07-31T05:02:43.751Z,100313.62
2022-07-31T05:05:10.411Z,100310.34
2022-07-31T05:07:37.981Z,100314.19
2022-07-31T05:10:05.897Z,100320.72
2022-07-31T05:12:33.011Z,100317.97
2022-07-31T05:14:59.991Z,100304.66
2022-07-31T05:17:27.076Z,100306.31
2022-07-31T05:19:59.363Z,100297.31
2022-07-31T05:22:27.163Z,100307.41
2022-07-31T05:24:54.607Z,100312.28
2022-07-31T05:27:21.768Z,100295.69
2022-07-31T05:29:48.781Z,100295.41
2022-07-31T05:32:16.144Z,100306.00
2022-07-31T05:34:45.021Z,100299.19
2022-07-31T05:37:12.035Z,100291.81
2022-07-31T05:39:39.728Z,100301.59
2022-07-31T05:42:24.436Z,100303.75
2022-07-31T05:44:51.499Z,100300.22
2022-07-31T05:47:18.493Z,100301.31
2022-07-31T05:49:45.143Z,100304.59
2022-07-31T05:52:12.050Z,100307.59
2022-07-31T05:54:38.973Z,100304.53
2022-07-31T05:57:07.664Z,100314.63
2022-07-31T05:59:35.528Z,100313.50
2022-07-31T06:02:03.505Z,100317.84
2022-07-31T06:04:32.495Z,100308.31
2022-07-31T06:06:59.372Z,100299.84
2022-07-31T06:09:26.574Z,100305.25
2022-07-31T06:11:53.609Z,100319.94
2022-07-31T06:14:20.359Z,100308.16
2022-07-31T06:16:50.232Z,100306.22
2022-07-31T06:19:18.565Z,100302.38
2022-07-31T06:21:51.616Z,100303.12
2022-07-31T06:24:21.749Z,100310.12
2022-07-31T06:26:48.904Z,100318.53
2022-07-31T06:29:15.767Z,100296.22
2022-07-31T06:31:42.758Z,100306.47
2022-07-31T06:34:09.389Z,100310.00
2022-07-31T06:36:37.219Z,100299.16
2022-07-31T06:39:06.224Z,100288.03
2022-07-31T06:41:47.481Z,100291.84
2022-07-31T06:44:28.181Z,100293.19
2022-07-31T06:47:02.431Z,100279.25
2022-07-31T06:49:32.267Z,100286.03
2022-07-31T06:51:59.103Z,100289.75
2022-07-31T06:54:26.590Z,100266.84
2022-07-31T06:56:54.645Z,100263.84
2022-07-31T06:59:39.875Z,100276.31
2022-07-31T07:02:08.690Z,100275.47
2022-07-31T07:05:04.507Z,100262.59
2022-07-31T07:07:22.734Z,100257.63
2022-07-31T07:09:51.369Z,100264.94
2022-07-31T07:12:19.399Z,100264.06
2022-07-31T07:14:49.372Z,100267.84
2022-07-31T07:17:16.747Z,100259.41
2022-07-31T07:19:43.534Z,100262.12
2022-07-31T07:22:10.587Z,100262.66
2022-07-31T07:24:37.830Z,100258.50
2022-07-31T07:27:05.000Z,100249.69
2022-07-31T07:29:32.163Z,100251.75
2022-07-31T07:31:59.957Z,100236.19
2022-07-31T07:34:28.013Z,100247.22
2022-07-31T07:36:55.448Z,100243.69
2022-07-31T07:39:23.062Z,100249.38
2022-07-31T07:41:50.339Z,100250.94
2022-07-31T07:44:17.363Z,100238.34
2022-07-31T07:46:44.221Z,100243.41
2022-07-31T07:49:11.235Z,100235.78
2022-07-31T07:51:38.549Z,100242.22
2022-07-31T07:54:26.431Z,100246.00
2022-07-31T07:56:57.603Z,100241.03
2022-07-31T07:59:26.763Z,100245.53
2022-07-31T08:01:56.678Z,100243.03
2022-07-31T08:04:24.096Z,100229.56
2022-07-31T08:06:50.851Z,100243.81
2022-07-31T08:09:20.655Z,100248.19
2022-07-31T08:11:50.108Z,100244.06
2022-07-31T08:14:18.122Z,100242.28
2022-07-31T08:16:48.365Z,100240.66
2022-07-31T08:19:15.449Z,100237.63
2022-07-31T08:21:42.141Z,100223.94
2022-07-31T08:24:09.009Z,100240.97
2022-07-31T08:26:54.485Z,100236.34
2022-07-31T08:29:27.533Z,100233.16
2022-07-31T08:31:58.203Z,100228.91
2022-07-31T08:34:31.981Z,100207.84
2022-07-31T08:37:00.071Z,100225.75
2022-07-31T08:39:48.852Z,100230.84
2022-07-31T08:42:16.337Z,100218.62
2022-07-31T08:44:44.713Z,100221.50
2022-07-31T08:47:16.090Z,100223.94
2022-07-31T08:49:46.638Z,100221.94
2022-07-31T08:52:24.928Z,100200.53
2022-07-31T08:54:54.852Z,100204.91
2022-07-31T08:57:22.919Z,100209.97
2022-07-31T08:59:52.479Z,100187.84
2022-07-31T09:02:19.603Z,100194.97
2022-07-31T09:04:52.780Z,100198.12
2022-07-31T09:07:20.729Z,100195.28
2022-07-31T09:09:51.855Z,100203.91
2022-07-31T09:12:32.318Z,100194.38
2022-07-31T09:15:01.799Z,100196.00
2022-07-31T09:17:34.325Z,100190.91
2022-07-31T09:20:01.868Z,100182.38
2022-07-31T09:22:30.570Z,100172.75
2022-07-31T09:25:12.207Z,100179.34
2022-07-31T09:27:40.378Z,100178.53
2022-07-31T09:30:08.614Z,100180.56
2022-07-31T09:32:50.630Z,100164.03
2022-07-31T09:35:18.078Z,100178.84
2022-07-31T09:37:48.826Z,100172.44
2022-07-31T09:40:21.116Z,100179.78
2022-07-31T09:42:55.340Z,100175.31
2022-07-31T09:45:24.278Z,100174.00
2022-07-31T09:48:08.599Z,100177.62
2022-07-31T09:50:52.808Z,100179.28
2022-07-31T09:53:19.956Z,100173.59
2022-07-31T09:55:55.530Z,100166.59
2022-07-31T09:58:24.553Z,100168.28
2022-07-31T10:00:53.247Z,100159.75
2022-07-31T10:03:20.816Z,100163.91
2022-07-31T10:05:48.989Z,100160.69
2022-07-31T10:08:17.369Z,100159.75
2022-07-31T10:10:46.632Z,100160.28
2022-07-31T10:13:16.371Z,100154.81
2022-07-31T10:15:46.945Z,100146.69
2022-07-31T10:18:35.628Z,100157.56
2022-07-31T10:21:06.769Z,100150.75
2022-07-31T10:23:40.307Z,100130.72
2022-07-31T10:26:07.730Z,100144.75
2022-07-31T10:28:37.848Z,100119.72
2022-07-31T10:31:06.157Z,100142.22
2022-07-31T10:33:49.271Z,100127.69
2022-07-31T10:36:22.789Z,100126.34
2022-07-31T10:39:02.931Z,100138.53
2022-07-31T10:41:57.726Z,100136.28
2022-07-31T10:44:27.487Z,100127.94
2022-07-31T10:46:56.223Z,100133.94
2022-07-31T10:49:44.665Z,100125.69
2022-07-31T10:52:12.780Z,100122.03
2022-07-31T10:54:44.968Z,100112.69
2022-07-31T10:57:30.578Z,100121.31
2022-07-31T11:00:17.587Z,100116.75
2022-07-31T11:02:46.499Z,100121.63
2022-07-31T11:05:16.147Z,100126.28
2022-07-31T11:07:46.451Z,100113.25
2022-07-31T11:10:16.588Z,100105.81
2022-07-31T11:13:12.980Z,100111.84
2022-07-31T11:15:40.121Z,100109.28
2022-07-31T11:18:22.699Z,100092.03
2022-07-31T11:21:22.803Z,100094.78
2022-07-31T11:23:56.063Z,100096.97
2022-07-31T11:26:32.734Z,100085.44
2022-07-31T11:29:59.630Z,100076.19
2022-07-31T11:31:50.000Z,100079.94
2022-07-31T11:34:17.040Z,100074.78
2022-07-31T11:36:48.014Z,100077.69
2022-07-31T11:39:17.866Z,100069.06
2022-07-31T11:41:45.726Z,100061.06
2022-07-31T11:44:12.548Z,100069.16
2022-07-31T11:46:39.491Z,100076.44
2022-07-31T11:49:06.583Z,100077.06
2022-07-31T11:51:33.405Z,100062.94
2022-07-31T11:54:00.426Z,100058.56
2022-07-31T11:56:27.843Z,100065.47
2022-07-31T11:58:57.446Z,100072.59
2022-07-31T12:01:29.638Z,100066.09
2022-07-31T12:04:08.387Z,100065.94
2022-07-31T12:06:37.302Z,100068.44
2022-07-31T12:09:04.733Z,100071.72
2022-07-31T12:11:31.705Z,100052.44
2022-07-31T12:13:59.503Z,100063.25
2022-07-31T12:16:26.753Z,100069.53
2022-07-31T12:18:56.467Z,100051.13
2022-07-31T12:21:34.351Z,100053.63
2022-07-31T12:24:02.655Z,100059.81
2022-07-31T12:26:31.866Z,100043.34
2022-07-31T12:29:02.925Z,100061.78
2022-07-31T12:31:32.529Z,100050.19
2022-07-31T12:33:59.443Z,100039.66
2022-07-31T12:36:26.102Z,100043.06
2022-07-31T12:39:05.037Z,100040.00
2022-07-31T12:41:42.220Z,100048.94
2022-07-31T12:44:14.679Z,100049.44
2022-07-31T12:46:41.720Z,100047.63
2022-07-31T12:49:08.942Z,100042.28
2022-07-31T12:51:45.605Z,100033.56
2022-07-31T12:54:17.894Z,100039.84
2022-07-31T12:56:46.531Z,100047.75
2022-07-31T12:59:13.714Z,100039.69
2022-07-31T13:01:40.520Z,100033.09
2022-07-31T13:04:18.206Z,100020.00
2022-07-31T13:06:48.585Z,100030.22
2022-07-31T13:09:16.119Z,100021.16
2022-07-31T13:11:46.373Z,100027.97
2022-07-31T13:14:19.299Z,100025.06
2022-07-31T13:16:46.958Z,100026.97
2022-07-31T13:19:14.281Z,100015.84
2022-07-31T13:21:48.953Z,100023.53
2022-07-31T13:24:19.178Z,100027.59
2022-07-31T13:26:47.652Z,100020.19
2022-07-31T13:29:14.575Z,100014.19
2022-07-31T13:31:41.809Z,100009.50
2022-07-31T13:34:08.958Z,100019.38
2022-07-31T13:36:38.971Z,100016.00
2022-07-31T13:39:11.205Z,100015.69
2022-07-31T13:41:39.523Z,100013.56
2022-07-31T13:44:07.230Z,100011.34
2022-07-31T13:46:34.096Z,100000.00
2022-07-31T13:49:02.450Z,100010.34
2022-07-31T13:51:29.766Z,100002.13
2022-07-31T13:53:56.811Z,99997.06
2022-07-31T13:56:38.913Z,100011.78
2022-07-31T13:59:11.843Z,100009.34
2022-07-31T14:02:04.203Z,100011.78
2022-07-31T14:04:31.292Z,100012.09
2022-07-31T14:07:01.352Z,99993.34
2022-07-31T14:09:34.241Z,99998.38
2022-07-31T14:12:04.656Z,100007.72
2022-07-31T14:14:32.503Z,99995.47
2022-07-31T14:16:59.210Z,99995.78
2022-07-31T14:19:25.999Z,99992.84
2022-07-31T14:21:56.854Z,99990.41
2022-07-31T14:24:25.578Z,99988.50
2022-07-31T14:26:52.581Z,99992.84
2022-07-31T14:29:19.667Z,99984.59
2022-07-31T14:31:46.496Z,99977.53
2022-07-31T14:34:13.397Z,99976.53
2022-07-31T14:36:40.310Z,99987.00
2022-07-31T14:39:07.014Z,99972.69
2022-07-31T14:41:33.734Z,99977.56
2022-07-31T14:44:00.726Z,99966.25
2022-07-31T14:46:27.473Z,99980.59
2022-07-31T14:48:54.251Z,99971.72
2022-07-31T14:51:21.381Z,99967.66
2022-07-31T14:53:48.096Z,99974.16
2022-07-31T14:56:23.418Z,99975.09
2022-07-31T14:59:01.577Z,99977.22
2022-07-31T15:01:30.616Z,99966.97
2022-07-31T15:03:58.422Z,99977.84
2022-07-31T15:06:39.798Z,99974.47
2022-07-31T15:09:16.349Z,99970.72
2022-07-31T15:11:59.593Z,99963.25
2022-07-31T15:14:27.639Z,99976.63
2022-07-31T15:16:54.635Z,99966.28
2022-07-31T15:19:21.272Z,99953.03
2022-07-31T15:22:10.748Z,99968.06
2022-07-31T15:24:35.046Z,99960.25
2022-07-31T15:27:02.199Z,99971.44
2022-07-31T15:30:00.650Z,99955.41
2022-07-31T15:32:16.046Z,99949.75
2022-07-31T15:34:42.807Z,99962.81
2022-07-31T15:37:09.680Z,99966.19
2022-07-31T15:39:37.239Z,99966.50
2022-07-31T15:42:04.262Z,99967.94
2022-07-31T15:44:31.569Z,99968.25
2022-07-31T15:46:58.591Z,99962.37
2022-07-31T15:49:25.341Z,99969.47
2022-07-31T15:51:52.174Z,99964.31
2022-07-31T15:54:19.113Z,99958.94
2022-07-31T15:56:47.126Z,99972.94
2022-07-31T15:59:13.933Z,99965.94
2022-07-31T16:01:41.016Z,99976.91
2022-07-31T16:04:16.339Z,99969.31
2022-07-31T16:06:48.859Z,99973.78
2022-07-31T16:09:16.342Z,99971.78
2022-07-31T16:12:05.503Z,99981.31
2022-07-31T16:14:31.057Z,99976.75
2022-07-31T16:16:57.704Z,99973.13
2022-07-31T16:19:27.511Z,99975.66
2022-07-31T16:21:58.064Z,99987.63
2022-07-31T16:24:24.797Z,99971.63
2022-07-31T16:26:51.723Z,99989.66
2022-07-31T16:29:57.742Z,99982.06
2022-07-31T16:32:05.795Z,99983.81
2022-07-31T16:34:32.778Z,99984.44
2022-07-31T16:36:59.535Z,99990.50
2022-07-31T16:39:26.303Z,99979.34
2022-07-31T16:41:54.820Z,99979.97
2022-07-31T16:44:22.020Z,99972.75
2022-07-31T16:46:54.176Z,99971.75
2022-07-31T16:49:35.356Z,99982.06
2022-07-31T16:52:03.618Z,99988.47
2022-07-31T16:54:30.684Z,99980.34
2022-07-31T16:56:57.358Z,99989.16
2022-07-31T16:59:24.075Z,99991.41
2022-07-31T17:01:57.775Z,99991.19
2022-07-31T17:04:27.817Z,99996.44
2022-07-31T17:06:55.453Z,99998.19
2022-07-31T17:09:22.879Z,99996.34
2022-07-31T17:11:53.870Z,99992.59
2022-07-31T17:14:22.017Z,99995.41
2022-07-31T17:16:50.162Z,99998.16
2022-07-31T17:19:41.326Z,100011.22
2022-07-31T17:22:07.258Z,99997.47
2022-07-31T17:24:36.981Z,100009.03
2022-07-31T17:27:08.514Z,100005.34
2022-07-31T17:29:37.521Z,100014.66
2022-07-31T17:32:04.538Z,100007.75
2022-07-31T17:34:31.253Z,100008.53
2022-07-31T17:36:58.441Z,100012.97
2022-07-31T17:39:30.039Z,100007.31
2022-07-31T17:41:57.805Z,100015.25
2022-07-31T17:44:24.811Z,100000.66
2022-07-31T17:46:52.390Z,100014.56
2022-07-31T17:49:19.737Z,100017.88
2022-07-31T17:51:58.672Z,100016.56
2022-07-31T17:54:35.097Z,100022.59
2022-07-31T17:57:02.658Z,100019.94
2022-07-31T17:59:29.627Z,100006.66
2022-07-31T18:02:00.462Z,100012.72
2022-07-31T18:04:28.683Z,100028.31
2022-07-31T18:06:55.757Z,100028.62
2022-07-31T18:09:23.805Z,100026.03
2022-07-31T18:11:52.345Z,100031.56
2022-07-31T18:14:19.622Z,100033.84
2022-07-31T18:16:47.252Z,100028.97
2022-07-31T18:19:15.002Z,100030.13
2022-07-31T18:21:42.029Z,100031.00
2022-07-31T18:24:08.904Z,100032.69
2022-07-31T18:26:37.388Z,100030.84
2022-07-31T18:29:05.073Z,100030.63
2022-07-31T18:31:35.151Z,100035.03
2022-07-31T18:34:06.928Z,100032.06
2022-07-31T18:36:35.006Z,100034.56
2022-07-31T18:39:04.476Z,100030.00
2022-07-31T18:41:33.967Z,100015.38
2022-07-31T18:44:01.066Z,100017.81
2022-07-31T18:46:28.097Z,100036.03
2022-07-31T18:48:56.475Z,100021.41
2022-07-31T18:51:28.785Z,100032.84
2022-07-31T18:53:56.597Z,100033.69
2022-07-31T18:56:24.497Z,100025.91
2022-07-31T18:58:52.185Z,100024.84
2022-07-31T19:01:19.630Z,100024.09
2022-07-31T19:03:46.691Z,100034.16
2022-07-31T19:06:13.736Z,100036.09
2022-07-31T19:08:40.827Z,100030.16
2022-07-31T19:11:07.526Z,100036.69
2022-07-31T19:13:34.931Z,100035.62
2022-07-31T19:16:02.127Z,100036.47
2022-07-31T19:18:29.140Z,100024.56
2022-07-31T19:21:18.971Z,100018.06
2022-07-31T19:23:46.581Z,100033.31
2022-07-31T19:26:13.589Z,100019.75
2022-07-31T19:28:43.110Z,100036.09
2022-07-31T19:31:11.638Z,100030.09
2022-07-31T19:33:38.450Z,100026.00
2022-07-31T19:36:05.698Z,100030.13
2022-07-31T19:38:35.727Z,100027.97
2022-07-31T19:41:03.167Z,100010.59
2022-07-31T19:43:30.749Z,100031.00
2022-07-31T19:46:10.693Z,100014.47
2022-07-31T19:48:41.325Z,100021.22
2022-07-31T19:51:09.584Z,100024.25
2022-07-31T19:53:36.389Z,100031.09
2022-07-31T19:56:05.818Z,100026.47
2022-07-31T19:58:34.770Z,100021.62
2022-07-31T20:01:02.475Z,100017.31
2022-07-31T20:03:29.674Z,100023.84
2022-07-31T20:05:57.309Z,100007.56
2022-07-31T20:08:24.082Z,100021.41
2022-07-31T20:10:51.327Z,100025.78
2022-07-31T20:13:19.141Z,100016.31
2022-07-31T20:15:51.578Z,100026.91
2022-07-31T20:18:27.310Z,100022.59
2022-07-31T20:21:09.426Z,100022.06
2022-07-31T20:23:38.996Z,100007.66
2022-07-31T20:26:07.347Z,100015.84
2022-07-31T20:28:34.610Z,100007.97
2022-07-31T20:31:01.954Z,100002.28
2022-07-31T20:33:28.740Z,100009.87
2022-07-31T20:35:55.478Z,100013.16
2022-07-31T20:38:23.827Z,100006.63
2022-07-31T20:40:55.333Z,100003.69
2022-07-31T20:43:24.320Z,100009.69
2022-07-31T20:45:51.720Z,100016.47
2022-07-31T20:48:18.520Z,100014.31
2022-07-31T20:50:48.091Z,99996.66
2022-07-31T20:53:16.275Z,100002.63
2022-07-31T20:55:49.331Z,100012.19
2022-07-31T20:58:18.252Z,99993.69
2022-07-31T21:00:45.505Z,99994.22
2022-07-31T21:03:12.872Z,99998.91
2022-07-31T21:05:40.045Z,99998.91
2022-07-31T21:08:06.830Z,100002.97
2022-07-31T21:10:34.112Z,99997.00
2022-07-31T21:13:01.059Z,99998.38
2022-07-31T21:15:41.938Z,100001.91
2022-07-31T21:18:13.086Z,99997.84
2022-07-31T21:20:52.246Z,100000.03
2022-07-31T21:23:24.536Z,100006.03
2022-07-31T21:25:56.728Z,100001.12
2022-07-31T21:28:26.369Z,99997.59
2022-07-31T21:30:55.889Z,99994.09
2022-07-31T21:33:24.643Z,100001.94
2022-07-31T21:35:52.132Z,99992.72
2022-07-31T21:38:19.099Z,99998.69
2022-07-31T21:40:47.498Z,99991.34
2022-07-31T21:43:14.727Z,99995.44
2022-07-31T21:45:54.858Z,99994.34
2022-07-31T21:48:26.925Z,99987.81
2022-07-31T21:50:54.885Z,99977.78
2022-07-31T21:53:22.227Z,99983.50
2022-07-31T21:55:49.386Z,99976.19
2022-07-31T21:58:17.394Z,99988.94
2022-07-31T22:00:44.925Z,99978.63
2022-07-31T22:03:12.048Z,99986.78
2022-07-31T22:05:57.471Z,99986.50
2022-07-31T22:08:24.717Z,99975.38
2022-07-31T22:10:52.215Z,99975.34
2022-07-31T22:13:19.649Z,99974.00
2022-07-31T22:15:58.778Z,99975.31
2022-07-31T22:18:29.604Z,99964.16
2022-07-31T22:20:57.433Z,99959.03
2022-07-31T22:23:26.125Z,99975.03
2022-07-31T22:25:53.114Z,99963.87
2022-07-31T22:28:22.120Z,99958.47
2022-07-31T22:30:49.288Z,99957.09
2022-07-31T22:33:16.222Z,99961.44
2022-07-31T22:35:43.846Z,99963.06
2022-07-31T22:38:13.445Z,99968.47
2022-07-31T22:40:40.495Z,99953.25
2022-07-31T22:44:10.668Z,99962.75
2022-07-31T22:46:00.386Z,99963.28
2022-07-31T22:48:27.916Z,99960.84
2022-07-31T22:50:55.475Z,99960.81
2022-07-31T22:53:22.326Z,99951.31
2022-07-31T22:55:49.424Z,99947.50
2022-07-31T22:58:16.125Z,99951.34
2022-07-31T23:00:43.197Z,99949.16
2022-07-31T23:03:10.132Z,99962.22
2022-07-31T23:06:28.165Z,99952.97
2022-07-31T23:08:23.985Z,99943.75
2022-07-31T23:10:50.854Z,99957.09
2022-07-31T23:13:17.600Z,99956.81
2022-07-31T23:15:44.851Z,99954.13
2022-07-31T23:18:11.934Z,99954.66
2022-07-31T23:20:38.721Z,99956.81
2022-07-31T23:23:05.723Z,99953.28
2022-07-31T23:25:32.732Z,99947.59
2022-07-31T23:27:59.517Z,99949.22
2022-07-31T23:30:27.523Z,99944.34
2022-07-31T23:32:55.410Z,99946.22
2022-07-31T23:35:22.174Z,99942.66
2022-07-31T23:37:49.205Z,99935.06
2022-07-31T23:40:15.956Z,99940.22
2022-07-31T23:42:42.652Z,99942.66
2022-07-31T23:45:15.434Z,99923.94
2022-07-31T23:47:45.640Z,99938.31
2022-07-31T23:50:15.270Z,99945.91
2022-07-31T23:52:43.053Z,99932.63
2022-07-31T23:55:10.096Z,99938.84
2022-07-31T23:57:37.254Z,99936.66
